createdAt,value
2019-01-17T00:00:09.351Z,0
2019-01-17T00:01:11.467Z,0
2019-01-17T00:02:13.568Z,0
2019-01-17T00:03:15.679Z,0
2019-01-17T00:04:18.093Z,0
2019-01-17T00:05:20.215Z,0
2019-01-17T00:06:22.655Z,0
2019-01-17T00:07:24.769Z,0
2019-01-17T00:08:26.897Z,0
2019-01-17T00:09:29.007Z,0
2019-01-17T00:10:31.116Z,0
2019-01-17T00:11:33.528Z,0
2019-01-17T00:12:35.644Z,0
2019-01-17T00:13:37.826Z,0
2019-01-17T00:14:39.959Z,0
2019-01-17T00:15:42.545Z,0
2019-01-17T00:16:44.660Z,0
2019-01-17T00:17:46.766Z,0
2019-01-17T00:18:48.909Z,0
2019-01-17T00:19:51.001Z,0
2019-01-17T00:20:53.139Z,0
2019-01-17T00:21:55.273Z,0
2019-01-17T00:22:57.796Z,0
2019-01-17T00:24:02.659Z,0
2019-01-17T00:25:05.297Z,0
2019-01-17T00:26:08.014Z,0
2019-01-17T00:27:10.128Z,0
2019-01-17T00:28:12.255Z,0
2019-01-17T00:29:14.362Z,0
2019-01-17T00:30:16.480Z,0
2019-01-17T00:31:18.619Z,0
2019-01-17T00:32:20.716Z,0
2019-01-17T00:33:22.865Z,0
2019-01-17T00:34:24.981Z,0
2019-01-17T00:35:27.083Z,0
2019-01-17T00:36:29.239Z,0
2019-01-17T00:37:31.366Z,0
2019-01-17T00:38:33.526Z,0
2019-01-17T00:39:35.648Z,0
2019-01-17T00:40:38.063Z,0
2019-01-17T00:41:40.162Z,0
2019-01-17T00:42:42.271Z,0
2019-01-17T00:43:44.403Z,0
2019-01-17T00:44:46.538Z,0
2019-01-17T00:45:48.670Z,0
2019-01-17T00:46:50.779Z,0
2019-01-17T00:47:52.902Z,0
2019-01-17T00:48:54.990Z,0
2019-01-17T00:49:57.111Z,0
2019-01-17T00:50:59.892Z,0
2019-01-17T00:52:02.009Z,0
2019-01-17T00:53:04.125Z,0
2019-01-17T00:54:09.114Z,0
2019-01-17T00:55:11.675Z,0
2019-01-17T00:56:13.773Z,0
2019-01-17T00:57:15.899Z,0
2019-01-17T00:58:17.994Z,0
2019-01-17T00:59:20.495Z,0
2019-01-17T01:00:22.591Z,0
2019-01-17T01:01:25.016Z,0
2019-01-17T01:02:27.117Z,0
2019-01-17T01:03:29.232Z,0
2019-01-17T01:04:31.344Z,0
2019-01-17T01:05:33.442Z,0
2019-01-17T01:06:35.564Z,0
2019-01-17T01:07:37.952Z,0
2019-01-17T01:08:40.048Z,0
2019-01-17T01:09:42.157Z,0
2019-01-17T01:10:44.278Z,0
2019-01-17T01:11:46.383Z,0
2019-01-17T01:12:48.501Z,0
2019-01-17T01:13:50.899Z,0
2019-01-17T01:14:53.003Z,0
2019-01-17T01:15:55.112Z,0
2019-01-17T01:16:57.231Z,0
2019-01-17T01:17:59.331Z,0
2019-01-17T01:19:01.443Z,0
2019-01-17T01:20:03.844Z,0
2019-01-17T01:21:06.354Z,0
2019-01-17T01:22:08.451Z,0
2019-01-17T01:23:10.940Z,0
2019-01-17T01:24:15.479Z,0
2019-01-17T01:25:17.684Z,0
2019-01-17T01:26:19.783Z,0
2019-01-17T01:27:21.908Z,0
2019-01-17T01:28:24.015Z,0
2019-01-17T01:29:26.405Z,0
2019-01-17T01:30:28.529Z,0
2019-01-17T01:31:30.915Z,0
2019-01-17T01:32:33.029Z,0
2019-01-17T01:33:35.145Z,0
2019-01-17T01:34:37.313Z,0
2019-01-17T01:35:39.707Z,0
2019-01-17T01:36:41.818Z,0
2019-01-17T01:37:44.236Z,0
2019-01-17T01:38:46.623Z,0
2019-01-17T01:39:48.737Z,0
2019-01-17T01:40:50.859Z,0
2019-01-17T01:41:53.264Z,0
2019-01-17T01:42:55.375Z,0
2019-01-17T01:43:57.489Z,0
2019-01-17T01:44:59.594Z,0
2019-01-17T01:46:01.715Z,0
2019-01-17T01:47:03.822Z,0
2019-01-17T01:48:05.924Z,0
2019-01-17T01:49:08.027Z,0
2019-01-17T01:50:10.148Z,0
2019-01-17T01:51:12.248Z,0
2019-01-17T01:52:14.746Z,0
2019-01-17T01:53:16.871Z,0
2019-01-17T01:54:22.060Z,0
2019-01-17T01:55:24.317Z,0
2019-01-17T01:56:26.422Z,0
2019-01-17T01:57:28.834Z,0
2019-01-17T01:58:30.973Z,0
2019-01-17T01:59:33.377Z,0
2019-01-17T02:00:35.473Z,0
2019-01-17T02:01:37.580Z,0
2019-01-17T02:02:39.702Z,0
2019-01-17T02:03:41.800Z,0
2019-01-17T02:04:43.923Z,0
2019-01-17T02:05:46.033Z,0
2019-01-17T02:06:48.146Z,0
2019-01-17T02:07:50.238Z,0
2019-01-17T02:08:52.742Z,0
2019-01-17T02:09:54.845Z,0
2019-01-17T02:10:56.953Z,0
2019-01-17T02:11:59.088Z,0
2019-01-17T02:13:01.185Z,0
2019-01-17T02:14:03.307Z,0
2019-01-17T02:15:05.429Z,0
2019-01-17T02:16:07.536Z,0
2019-01-17T02:17:09.632Z,0
2019-01-17T02:18:11.747Z,0
2019-01-17T02:19:13.841Z,0
2019-01-17T02:20:15.956Z,0
2019-01-17T02:21:18.074Z,0
2019-01-17T02:22:20.189Z,0
2019-01-17T02:23:22.285Z,0
2019-01-17T02:24:28.449Z,0
2019-01-17T02:25:30.730Z,0
2019-01-17T02:26:32.842Z,0
2019-01-17T02:27:35.348Z,0
2019-01-17T02:28:37.443Z,0
2019-01-17T02:29:39.869Z,0
2019-01-17T02:30:42.370Z,0
2019-01-17T02:31:44.498Z,0
2019-01-17T02:32:47.205Z,0
2019-01-17T02:33:49.326Z,0
2019-01-17T02:34:51.451Z,0
2019-01-17T02:35:53.552Z,0
2019-01-17T02:36:55.663Z,0
2019-01-17T02:37:57.795Z,0
2019-01-17T02:39:00.193Z,0
2019-01-17T02:40:02.984Z,0
2019-01-17T02:41:05.104Z,0
2019-01-17T02:42:07.516Z,0
2019-01-17T02:43:10.584Z,0
2019-01-17T02:44:13.256Z,0
2019-01-17T02:45:15.438Z,0
2019-01-17T02:46:17.554Z,0
2019-01-17T02:47:19.672Z,0
2019-01-17T02:48:22.461Z,0
2019-01-17T02:49:24.576Z,0
2019-01-17T02:50:26.681Z,0
2019-01-17T02:51:28.796Z,0
2019-01-17T02:52:30.915Z,0
2019-01-17T02:53:33.024Z,0
2019-01-17T02:54:35.765Z,0
2019-01-17T02:55:37.995Z,0
2019-01-17T02:56:40.101Z,0
2019-01-17T02:57:42.645Z,0
2019-01-17T02:58:45.315Z,0
2019-01-17T02:59:47.702Z,0
2019-01-17T03:00:49.852Z,0
2019-01-17T03:01:52.275Z,0
2019-01-17T03:02:54.401Z,0
2019-01-17T03:03:57.203Z,0
2019-01-17T03:04:59.327Z,0
2019-01-17T03:06:01.528Z,0
2019-01-17T03:07:04.061Z,0
2019-01-17T03:08:06.187Z,0
2019-01-17T03:09:08.285Z,0
2019-01-17T03:10:10.418Z,0
2019-01-17T03:11:12.795Z,0
2019-01-17T03:12:15.001Z,0
2019-01-17T03:13:17.418Z,0
2019-01-17T03:14:19.557Z,0
2019-01-17T03:15:21.964Z,0
2019-01-17T03:16:24.095Z,0
2019-01-17T03:17:26.255Z,0
2019-01-17T03:18:28.348Z,0
2019-01-17T03:19:31.046Z,0
2019-01-17T03:20:33.151Z,0
2019-01-17T03:21:35.938Z,0
2019-01-17T03:22:38.053Z,0
2019-01-17T03:23:40.182Z,0
2019-01-17T03:24:43.031Z,0
2019-01-17T03:25:45.308Z,0
2019-01-17T03:26:47.423Z,0
2019-01-17T03:27:49.524Z,0
2019-01-17T03:28:51.627Z,0
2019-01-17T03:29:54.045Z,0
2019-01-17T03:30:56.138Z,0
2019-01-17T03:31:58.625Z,0
2019-01-17T03:33:01.733Z,0
2019-01-17T03:34:04.845Z,0
2019-01-17T03:35:07.979Z,0
2019-01-17T03:36:10.105Z,0
2019-01-17T03:37:12.222Z,0
2019-01-17T03:38:14.320Z,0
2019-01-17T03:39:16.445Z,0
2019-01-17T03:40:18.950Z,0
2019-01-17T03:41:21.466Z,0
2019-01-17T03:42:23.603Z,0
2019-01-17T03:43:25.706Z,0
2019-01-17T03:44:27.863Z,0
2019-01-17T03:45:29.971Z,0
2019-01-17T03:46:32.088Z,0
2019-01-17T03:47:34.198Z,0
2019-01-17T03:48:36.335Z,0
2019-01-17T03:49:38.452Z,0
2019-01-17T03:50:40.559Z,0
2019-01-17T03:51:42.989Z,0
2019-01-17T03:52:45.102Z,0
2019-01-17T03:53:47.218Z,0
2019-01-17T03:54:51.293Z,0
2019-01-17T03:55:56.404Z,0
2019-01-17T03:56:58.540Z,0
2019-01-17T03:58:01.048Z,0
2019-01-17T03:59:03.492Z,0
2019-01-17T04:00:05.612Z,0
2019-01-17T04:01:07.991Z,0
2019-01-17T04:02:10.108Z,0
2019-01-17T04:03:12.229Z,0
2019-01-17T04:04:14.392Z,0
2019-01-17T04:05:16.507Z,0
2019-01-17T04:06:18.635Z,0
2019-01-17T04:07:21.048Z,0
2019-01-17T04:08:23.187Z,0
2019-01-17T04:09:25.306Z,0
2019-01-17T04:10:27.445Z,0
2019-01-17T04:11:29.547Z,0
2019-01-17T04:12:31.671Z,0
2019-01-17T04:13:33.776Z,0
2019-01-17T04:14:35.928Z,0
2019-01-17T04:15:38.738Z,0
2019-01-17T04:16:40.840Z,0
2019-01-17T04:17:42.960Z,0
2019-01-17T04:18:45.460Z,0
2019-01-17T04:19:47.581Z,0
2019-01-17T04:20:49.683Z,0
2019-01-17T04:21:51.802Z,0
2019-01-17T04:22:53.909Z,0
2019-01-17T04:23:56.297Z,0
2019-01-17T04:24:58.822Z,0
2019-01-17T04:26:00.970Z,0
2019-01-17T04:27:03.383Z,0
2019-01-17T04:28:05.780Z,0
2019-01-17T04:29:07.894Z,0
2019-01-17T04:30:10.289Z,0
2019-01-17T04:31:12.401Z,0
2019-01-17T04:32:14.800Z,0
2019-01-17T04:33:16.912Z,0
2019-01-17T04:34:19.034Z,0
2019-01-17T04:35:21.149Z,0
2019-01-17T04:36:23.247Z,0
2019-01-17T04:37:25.377Z,0
2019-01-17T04:38:27.483Z,0
2019-01-17T04:39:29.595Z,0
2019-01-17T04:40:32.127Z,0
2019-01-17T04:41:34.238Z,0
2019-01-17T04:42:36.357Z,0
2019-01-17T04:43:38.782Z,0
2019-01-17T04:44:40.913Z,0
2019-01-17T04:45:43.005Z,0
2019-01-17T04:46:45.137Z,0
2019-01-17T04:47:47.254Z,0
2019-01-17T04:48:49.349Z,0
2019-01-17T04:49:51.472Z,0
2019-01-17T04:50:53.572Z,0
2019-01-17T04:51:55.689Z,0
2019-01-17T04:52:57.793Z,0
2019-01-17T04:53:59.935Z,0
2019-01-17T04:55:05.166Z,0
2019-01-17T04:56:08.388Z,0
2019-01-17T04:57:10.820Z,0
2019-01-17T04:58:12.940Z,0
2019-01-17T04:59:15.068Z,0
2019-01-17T05:00:17.484Z,0
2019-01-17T05:01:19.885Z,0
2019-01-17T05:02:22.292Z,0
2019-01-17T05:03:24.423Z,0
2019-01-17T05:04:26.527Z,0
2019-01-17T05:05:28.663Z,0
2019-01-17T05:06:30.820Z,0
2019-01-17T05:07:32.928Z,0
2019-01-17T05:08:35.041Z,0
2019-01-17T05:09:37.738Z,0
2019-01-17T05:10:40.151Z,0
2019-01-17T05:11:42.259Z,0
2019-01-17T05:12:44.379Z,0
2019-01-17T05:13:46.889Z,0
2019-01-17T05:14:48.994Z,0
2019-01-17T05:15:51.410Z,0
2019-01-17T05:16:54.361Z,0
2019-01-17T05:17:56.932Z,0
2019-01-17T05:18:59.025Z,0
2019-01-17T05:20:01.142Z,0
2019-01-17T05:21:03.644Z,0
2019-01-17T05:22:06.418Z,0
2019-01-17T05:23:08.549Z,0
2019-01-17T05:24:10.658Z,0
2019-01-17T05:25:13.171Z,0
2019-01-17T05:26:15.296Z,0
2019-01-17T05:27:17.436Z,0
2019-01-17T05:28:19.546Z,0
2019-01-17T05:29:21.668Z,0
2019-01-17T05:30:23.782Z,0
2019-01-17T05:31:25.891Z,0
2019-01-17T05:32:28.325Z,0
2019-01-17T05:33:37.480Z,0
2019-01-17T05:34:39.984Z,0
2019-01-17T05:35:42.100Z,0
2019-01-17T05:36:44.239Z,0
2019-01-17T05:37:46.649Z,0
2019-01-17T05:38:49.053Z,0
2019-01-17T05:39:51.164Z,0
2019-01-17T05:40:53.268Z,0
2019-01-17T05:41:55.676Z,0
2019-01-17T05:42:57.803Z,0
2019-01-17T05:43:59.901Z,0
2019-01-17T05:45:02.300Z,0
2019-01-17T05:46:04.420Z,0
2019-01-17T05:47:06.551Z,0
2019-01-17T05:48:08.936Z,0
2019-01-17T05:49:11.052Z,0
2019-01-17T05:50:13.475Z,0
2019-01-17T05:51:15.603Z,0
2019-01-17T05:52:18.098Z,0
2019-01-17T05:53:20.226Z,0
2019-01-17T05:54:22.344Z,0
2019-01-17T05:55:24.445Z,0
2019-01-17T05:56:26.965Z,0
2019-01-17T05:57:29.083Z,0
2019-01-17T05:58:31.505Z,0
2019-01-17T05:59:33.615Z,0
2019-01-17T06:00:35.752Z,0
2019-01-17T06:01:38.142Z,0
2019-01-17T06:02:40.256Z,0
2019-01-17T06:03:42.651Z,0
2019-01-17T06:04:44.742Z,0
2019-01-17T06:05:46.865Z,0
2019-01-17T06:06:48.980Z,0
2019-01-17T06:07:51.077Z,0
2019-01-17T06:08:53.471Z,0
2019-01-17T06:09:55.593Z,0
2019-01-17T06:10:57.704Z,0
2019-01-17T06:11:59.826Z,0
2019-01-17T06:13:02.220Z,0
2019-01-17T06:14:04.323Z,0
2019-01-17T06:15:06.441Z,0
2019-01-17T06:16:08.562Z,0
2019-01-17T06:17:10.662Z,0
2019-01-17T06:18:12.776Z,0
2019-01-17T06:19:15.179Z,0
2019-01-17T06:20:17.282Z,0
2019-01-17T06:21:19.406Z,0
2019-01-17T06:22:21.507Z,0
2019-01-17T06:23:23.622Z,0
2019-01-17T06:24:26.111Z,0
2019-01-17T06:25:28.430Z,0
2019-01-17T06:26:30.597Z,0
2019-01-17T06:27:34.061Z,0
2019-01-17T06:28:36.163Z,0
2019-01-17T06:29:38.286Z,0
2019-01-17T06:30:40.390Z,0
2019-01-17T06:31:42.503Z,0
2019-01-17T06:32:44.613Z,0
2019-01-17T06:33:46.733Z,0
2019-01-17T06:34:48.860Z,0
2019-01-17T06:35:51.371Z,0
2019-01-17T06:36:53.499Z,0
2019-01-17T06:37:55.606Z,0
2019-01-17T06:38:57.749Z,0
2019-01-17T06:40:00.231Z,0
2019-01-17T06:41:02.422Z,0
2019-01-17T06:42:04.537Z,0
2019-01-17T06:43:06.660Z,0
2019-01-17T06:44:09.080Z,0
2019-01-17T06:45:11.485Z,0
2019-01-17T06:46:13.597Z,0
2019-01-17T06:47:15.696Z,0
2019-01-17T06:48:17.837Z,0
2019-01-17T06:49:19.960Z,0
2019-01-17T06:50:22.060Z,4
2019-01-17T06:51:24.181Z,4
2019-01-17T06:52:26.310Z,0
2019-01-17T06:53:28.688Z,0
2019-01-17T06:54:31.124Z,4
2019-01-17T06:55:34.467Z,4
2019-01-17T06:56:36.938Z,8
2019-01-17T06:57:39.369Z,8
2019-01-17T06:58:41.823Z,8
2019-01-17T06:59:44.204Z,8
2019-01-17T07:00:46.317Z,12
2019-01-17T07:01:48.440Z,12
2019-01-17T07:02:50.530Z,16
2019-01-17T07:03:52.644Z,20
2019-01-17T07:04:54.754Z,16
2019-01-17T07:05:56.878Z,20
2019-01-17T07:06:58.973Z,32
2019-01-17T07:08:01.106Z,44
2019-01-17T07:09:03.214Z,48
2019-01-17T07:10:05.317Z,64
2019-01-17T07:11:07.837Z,76
2019-01-17T07:12:10.221Z,80
2019-01-17T07:13:12.330Z,92
2019-01-17T07:14:14.468Z,96
2019-01-17T07:15:16.597Z,100
2019-01-17T07:16:18.701Z,108
2019-01-17T07:17:20.816Z,112
2019-01-17T07:18:24.311Z,116
2019-01-17T07:19:26.485Z,96
2019-01-17T07:20:28.613Z,124
2019-01-17T07:21:30.731Z,112
2019-01-17T07:22:32.830Z,132
2019-01-17T07:23:34.952Z,152
2019-01-17T07:24:37.052Z,112
2019-01-17T07:25:41.062Z,104
2019-01-17T07:26:43.692Z,132
2019-01-17T07:27:45.786Z,172
2019-01-17T07:28:47.907Z,196
2019-01-17T07:29:50.404Z,204
2019-01-17T07:30:52.917Z,172
2019-01-17T07:31:55.011Z,208
2019-01-17T07:32:57.124Z,280
2019-01-17T07:33:59.320Z,280
2019-01-17T07:35:01.427Z,260
2019-01-17T07:36:03.565Z,304
2019-01-17T07:37:05.663Z,348
2019-01-17T07:38:07.772Z,396
2019-01-17T07:39:09.878Z,432
2019-01-17T07:40:12.014Z,444
2019-01-17T07:41:14.109Z,420
2019-01-17T07:42:16.594Z,484
2019-01-17T07:43:18.696Z,592
2019-01-17T07:44:20.828Z,540
2019-01-17T07:45:22.925Z,472
2019-01-17T07:46:25.315Z,524
2019-01-17T07:47:27.443Z,564
2019-01-17T07:48:29.837Z,664
2019-01-17T07:49:32.373Z,676
2019-01-17T07:50:34.487Z,776
2019-01-17T07:51:36.888Z,836
2019-01-17T07:52:39.384Z,876
2019-01-17T07:53:41.505Z,756
2019-01-17T07:54:43.616Z,864
2019-01-17T07:55:47.633Z,884
2019-01-17T07:56:50.181Z,912
2019-01-17T07:57:52.572Z,1036
2019-01-17T07:58:54.682Z,1148
2019-01-17T07:59:56.804Z,1320
2019-01-17T08:00:58.893Z,1720
2019-01-17T08:02:01.006Z,1624
2019-01-17T08:03:03.146Z,1476
2019-01-17T08:04:05.284Z,1364
2019-01-17T08:05:07.672Z,1304
2019-01-17T08:06:10.086Z,912
2019-01-17T08:07:12.202Z,1096
2019-01-17T08:08:14.688Z,1508
2019-01-17T08:09:17.096Z,1736
2019-01-17T08:10:19.201Z,1844
2019-01-17T08:11:21.890Z,1540
2019-01-17T08:12:24.000Z,1416
2019-01-17T08:13:26.127Z,1496
2019-01-17T08:14:28.229Z,1424
2019-01-17T08:15:30.381Z,1620
2019-01-17T08:16:32.498Z,1644
2019-01-17T08:17:34.596Z,1388
2019-01-17T08:18:36.714Z,1432
2019-01-17T08:19:38.951Z,1660
2019-01-17T08:20:41.078Z,2080
2019-01-17T08:21:43.191Z,1808
2019-01-17T08:22:45.578Z,1408
2019-01-17T08:23:47.692Z,1312
2019-01-17T08:24:49.802Z,1456
2019-01-17T08:25:54.238Z,1600
2019-01-17T08:26:56.489Z,1644
2019-01-17T08:27:58.603Z,1412
2019-01-17T08:29:00.702Z,1148
2019-01-17T08:30:02.830Z,1728
2019-01-17T08:31:04.938Z,1864
2019-01-17T08:32:07.047Z,2388
2019-01-17T08:33:09.167Z,2924
2019-01-17T08:34:11.258Z,2460
2019-01-17T08:35:13.380Z,1984
2019-01-17T08:36:15.501Z,1600
2019-01-17T08:37:17.637Z,1756
2019-01-17T08:38:20.013Z,2000
2019-01-17T08:39:22.136Z,1908
2019-01-17T08:40:24.295Z,1812
2019-01-17T08:41:26.393Z,1792
2019-01-17T08:42:28.526Z,1668
2019-01-17T08:43:30.660Z,1528
2019-01-17T08:44:32.806Z,1560
2019-01-17T08:45:34.915Z,1596
2019-01-17T08:46:37.064Z,1652
2019-01-17T08:47:39.216Z,2060
2019-01-17T08:48:41.903Z,1808
2019-01-17T08:49:44.132Z,1352
2019-01-17T08:50:46.541Z,1608
2019-01-17T08:51:48.718Z,2400
2019-01-17T08:52:50.877Z,2948
2019-01-17T08:53:52.986Z,3108
2019-01-17T08:54:55.093Z,3072
2019-01-17T08:56:00.686Z,2632
2019-01-17T08:57:03.250Z,2680
2019-01-17T08:58:05.633Z,2720
2019-01-17T08:59:07.756Z,2540
2019-01-17T09:00:09.878Z,2516
2019-01-17T09:01:11.987Z,2248
2019-01-17T09:02:14.086Z,2344
2019-01-17T09:03:16.217Z,1804
2019-01-17T09:04:18.326Z,1736
2019-01-17T09:05:20.431Z,1224
2019-01-17T09:06:22.853Z,1404
2019-01-17T09:07:24.954Z,1728
2019-01-17T09:08:27.080Z,1736
2019-01-17T09:09:29.596Z,1832
2019-01-17T09:10:32.129Z,2088
2019-01-17T09:11:34.255Z,2156
2019-01-17T09:12:36.430Z,2092
2019-01-17T09:13:38.557Z,2168
2019-01-17T09:14:40.674Z,2436
2019-01-17T09:15:42.797Z,2232
2019-01-17T09:16:44.904Z,2248
2019-01-17T09:17:47.009Z,2304
2019-01-17T09:18:49.116Z,2044
2019-01-17T09:19:51.241Z,2212
2019-01-17T09:20:53.344Z,2236
2019-01-17T09:21:55.493Z,2372
2019-01-17T09:22:57.612Z,2228
2019-01-17T09:23:59.728Z,2620
2019-01-17T09:25:01.867Z,3472
2019-01-17T09:26:07.432Z,4036
2019-01-17T09:27:10.078Z,4568
2019-01-17T09:28:12.193Z,5076
2019-01-17T09:29:14.314Z,6416
2019-01-17T09:30:16.417Z,9804
2019-01-17T09:31:18.825Z,10732
2019-01-17T09:32:20.935Z,13540
2019-01-17T09:33:23.038Z,15224
2019-01-17T09:34:25.152Z,17696
2019-01-17T09:35:27.278Z,15988
2019-01-17T09:36:29.414Z,11000
2019-01-17T09:37:31.544Z,11036
2019-01-17T09:38:33.658Z,8332
2019-01-17T09:39:35.806Z,9504
2019-01-17T09:40:37.934Z,6828
2019-01-17T09:41:40.043Z,9036
2019-01-17T09:42:42.158Z,10952
2019-01-17T09:43:44.273Z,13296
2019-01-17T09:44:46.398Z,13512
2019-01-17T09:45:48.501Z,32416
2019-01-17T09:46:50.606Z,6944
2019-01-17T09:47:52.724Z,7924
2019-01-17T09:48:54.817Z,11092
2019-01-17T09:49:57.219Z,7064
2019-01-17T09:50:59.325Z,7448
2019-01-17T09:52:01.732Z,9764
2019-01-17T09:53:04.222Z,26016
2019-01-17T09:54:06.347Z,40736
2019-01-17T09:55:08.454Z,11860
2019-01-17T09:56:14.788Z,16824
2019-01-17T09:57:17.382Z,11452
2019-01-17T09:58:19.495Z,6236
2019-01-17T09:59:21.621Z,5080
2019-01-17T10:00:23.749Z,5488
2019-01-17T10:01:25.912Z,11216
2019-01-17T10:02:47.251Z,10684
2019-01-17T10:03:49.755Z,3476
2019-01-17T10:04:51.874Z,3928
2019-01-17T10:05:53.987Z,5332
2019-01-17T10:06:56.089Z,5352
2019-01-17T10:07:58.245Z,4748
2019-01-17T10:09:00.364Z,5196
2019-01-17T10:10:02.464Z,4216
2019-01-17T10:11:04.580Z,2788
2019-01-17T10:12:06.692Z,3896
2019-01-17T10:13:08.807Z,5828
2019-01-17T10:14:10.899Z,10400
2019-01-17T10:15:13.017Z,6416
2019-01-17T10:16:15.128Z,6056
2019-01-17T10:17:17.246Z,6060
2019-01-17T10:18:19.345Z,8736
2019-01-17T10:19:21.468Z,7120
2019-01-17T10:20:23.624Z,6080
2019-01-17T10:21:26.020Z,6148
2019-01-17T10:22:28.149Z,9200
2019-01-17T10:23:30.535Z,11320
2019-01-17T10:24:32.654Z,6888
2019-01-17T10:25:34.765Z,8116
2019-01-17T10:26:36.889Z,7664
2019-01-17T10:27:39.003Z,10260
2019-01-17T10:28:41.125Z,11360
2019-01-17T10:29:43.245Z,11540
2019-01-17T10:30:45.344Z,9572
2019-01-17T10:31:47.465Z,9340
2019-01-17T10:32:49.587Z,9848
2019-01-17T10:33:51.867Z,8384
2019-01-17T10:34:54.287Z,8512
2019-01-17T10:35:56.452Z,7184
2019-01-17T10:36:58.567Z,6388
2019-01-17T10:38:00.697Z,4236
2019-01-17T10:39:02.814Z,3924
2019-01-17T10:40:04.915Z,4568
2019-01-17T10:41:07.028Z,6136
2019-01-17T10:42:09.154Z,5912
2019-01-17T10:43:11.251Z,5356
2019-01-17T10:44:13.366Z,5020
2019-01-17T10:45:15.484Z,3764
2019-01-17T10:46:17.583Z,3444
2019-01-17T10:47:19.999Z,3796
2019-01-17T10:48:22.104Z,4636
2019-01-17T10:49:24.238Z,6248
2019-01-17T10:50:26.746Z,5076
2019-01-17T10:51:28.863Z,5124
2019-01-17T10:52:30.988Z,4968
2019-01-17T10:53:33.382Z,4280
2019-01-17T10:54:35.483Z,4508
2019-01-17T10:55:37.908Z,4748
2019-01-17T10:56:41.389Z,4984
2019-01-17T10:57:43.806Z,5376
2019-01-17T10:58:45.914Z,4996
2019-01-17T10:59:48.326Z,5520
2019-01-17T11:00:50.441Z,5296
2019-01-17T11:01:52.561Z,6916
2019-01-17T11:02:54.685Z,6992
2019-01-17T11:03:56.777Z,8156
2019-01-17T11:04:58.904Z,9032
2019-01-17T11:06:01.083Z,9780
2019-01-17T11:07:03.467Z,12044
2019-01-17T11:08:05.623Z,12388
2019-01-17T11:09:07.749Z,13192
2019-01-17T11:10:09.871Z,13968
2019-01-17T11:11:11.995Z,13972
2019-01-17T11:12:14.395Z,12912
2019-01-17T11:13:16.799Z,7968
2019-01-17T11:14:18.914Z,7576
2019-01-17T11:15:21.042Z,7240
2019-01-17T11:16:23.136Z,8612
2019-01-17T11:17:25.256Z,7972
2019-01-17T11:18:27.365Z,6296
2019-01-17T11:19:29.463Z,5232
2019-01-17T11:20:31.590Z,4932
2019-01-17T11:21:33.703Z,4884
2019-01-17T11:22:35.824Z,5852
2019-01-17T11:23:37.938Z,4648
2019-01-17T11:24:40.073Z,4828
2019-01-17T11:25:42.179Z,5984
2019-01-17T11:26:44.293Z,5496
2019-01-17T11:27:46.426Z,6196
2019-01-17T11:28:48.545Z,3856
2019-01-17T11:29:50.654Z,4172
2019-01-17T11:30:52.763Z,3660
2019-01-17T11:31:54.864Z,2676
2019-01-17T11:32:56.988Z,2968
2019-01-17T11:33:59.089Z,3756
2019-01-17T11:35:01.209Z,4260
2019-01-17T11:36:03.340Z,4112
2019-01-17T11:37:05.725Z,4616
2019-01-17T11:38:07.850Z,5028
2019-01-17T11:39:09.967Z,4264
2019-01-17T11:40:12.077Z,4288
2019-01-17T11:41:14.187Z,3376
2019-01-17T11:42:16.588Z,3032
2019-01-17T11:43:18.972Z,3220
2019-01-17T11:44:21.089Z,3440
2019-01-17T11:45:23.203Z,3592
2019-01-17T11:46:25.313Z,3752
2019-01-17T11:47:27.428Z,3896
2019-01-17T11:48:29.545Z,4048
2019-01-17T11:49:31.646Z,4812
2019-01-17T11:50:33.762Z,4212
2019-01-17T11:51:35.881Z,3848
2019-01-17T11:52:37.989Z,4060
2019-01-17T11:53:40.115Z,3456
2019-01-17T11:54:42.220Z,3008
2019-01-17T11:55:44.333Z,3436
2019-01-17T11:56:46.730Z,3800
2019-01-17T11:57:48.859Z,3220
2019-01-17T11:58:50.953Z,3200
2019-01-17T11:59:53.066Z,3172
2019-01-17T12:00:55.189Z,3264
2019-01-17T12:01:57.293Z,3800
2019-01-17T12:02:59.413Z,4276
2019-01-17T12:04:01.527Z,5844
2019-01-17T12:05:03.945Z,5532
2019-01-17T12:06:06.042Z,5216
2019-01-17T12:07:08.170Z,6420
2019-01-17T12:08:10.280Z,6572
2019-01-17T12:09:12.383Z,5560
2019-01-17T12:10:14.508Z,5852
2019-01-17T12:11:16.608Z,6892
2019-01-17T12:12:18.717Z,7456
2019-01-17T12:13:21.125Z,5924
2019-01-17T12:14:24.136Z,4556
2019-01-17T12:15:26.302Z,5428
2019-01-17T12:16:28.435Z,6172
2019-01-17T12:17:30.579Z,6516
2019-01-17T12:18:33.072Z,10116
2019-01-17T12:19:35.197Z,13664
2019-01-17T12:20:37.600Z,13800
2019-01-17T12:21:40.094Z,12444
2019-01-17T12:22:42.225Z,29760
2019-01-17T12:23:44.339Z,34880
2019-01-17T12:24:46.455Z,30976
2019-01-17T12:25:48.588Z,8748
2019-01-17T12:26:50.691Z,12780
2019-01-17T12:27:52.826Z,13792
2019-01-17T12:28:54.961Z,18720
2019-01-17T12:29:57.089Z,41920
2019-01-17T12:30:59.200Z,16248
2019-01-17T12:32:01.611Z,14204
2019-01-17T12:33:03.736Z,13380
2019-01-17T12:34:05.863Z,11280
2019-01-17T12:35:07.989Z,11796
2019-01-17T12:36:10.092Z,38816
2019-01-17T12:37:12.627Z,14568
2019-01-17T12:38:14.743Z,31648
2019-01-17T12:39:17.177Z,19456
2019-01-17T12:40:19.274Z,16424
2019-01-17T12:41:21.392Z,12384
2019-01-17T12:42:23.807Z,14892
2019-01-17T12:43:25.905Z,13588
2019-01-17T12:44:28.025Z,10996
2019-01-17T12:45:30.138Z,11276
2019-01-17T12:46:32.269Z,11520
2019-01-17T12:47:34.658Z,15368
2019-01-17T12:48:36.760Z,9572
2019-01-17T12:49:38.879Z,9432
2019-01-17T12:50:40.977Z,8072
2019-01-17T12:51:43.088Z,8904
2019-01-17T12:52:45.219Z,10208
2019-01-17T12:53:47.334Z,7928
2019-01-17T12:54:49.441Z,5136
2019-01-17T12:55:51.568Z,4672
2019-01-17T12:56:54.068Z,4704
2019-01-17T12:57:56.335Z,5976
2019-01-17T12:58:58.451Z,6768
2019-01-17T13:00:00.544Z,8840
2019-01-17T13:01:09.514Z,11660
2019-01-17T13:02:11.631Z,12300
2019-01-17T13:03:13.764Z,10084
2019-01-17T13:04:15.868Z,7480
2019-01-17T13:05:18.003Z,5560
2019-01-17T13:06:20.120Z,6188
2019-01-17T13:07:22.510Z,6264
2019-01-17T13:08:25.037Z,7248
2019-01-17T13:09:27.136Z,6204
2019-01-17T13:10:29.250Z,5164
2019-01-17T13:11:31.357Z,5652
2019-01-17T13:12:33.480Z,4692
2019-01-17T13:13:35.589Z,4232
2019-01-17T13:14:37.704Z,5004
2019-01-17T13:15:39.822Z,5328
2019-01-17T13:16:41.948Z,5580
2019-01-17T13:17:44.073Z,5804
2019-01-17T13:18:46.183Z,5688
2019-01-17T13:19:48.285Z,5696
2019-01-17T13:20:50.403Z,7084
2019-01-17T13:21:52.533Z,8452
2019-01-17T13:22:54.694Z,9632
2019-01-17T13:23:56.792Z,10108
2019-01-17T13:24:58.899Z,10620
2019-01-17T13:26:01.021Z,11444
2019-01-17T13:27:03.143Z,9288
2019-01-17T13:28:05.263Z,8568
2019-01-17T13:29:07.700Z,8184
2019-01-17T13:30:09.808Z,8052
2019-01-17T13:31:11.916Z,8076
2019-01-17T13:32:14.048Z,10048
2019-01-17T13:33:16.143Z,11736
2019-01-17T13:34:18.258Z,11384
2019-01-17T13:35:20.371Z,8004
2019-01-17T13:36:23.073Z,7000
2019-01-17T13:37:25.172Z,7672
2019-01-17T13:38:27.297Z,10412
2019-01-17T13:39:29.449Z,10920
2019-01-17T13:40:31.556Z,13100
2019-01-17T13:41:33.726Z,9000
2019-01-17T13:42:35.828Z,10908
2019-01-17T13:43:37.995Z,8916
2019-01-17T13:44:40.109Z,8040
2019-01-17T13:45:42.239Z,8036
2019-01-17T13:46:44.350Z,7232
2019-01-17T13:47:46.466Z,6552
2019-01-17T13:48:48.585Z,5864
2019-01-17T13:49:50.680Z,6152
2019-01-17T13:50:52.805Z,5608
2019-01-17T13:51:54.926Z,5288
2019-01-17T13:52:57.033Z,6320
2019-01-17T13:53:59.157Z,6192
2019-01-17T13:55:01.273Z,7372
2019-01-17T13:56:03.837Z,6264
2019-01-17T13:57:07.544Z,5300
2019-01-17T13:58:09.880Z,5468
2019-01-17T13:59:11.980Z,4608
2019-01-17T14:00:14.094Z,4296
2019-01-17T14:01:16.200Z,4312
2019-01-17T14:02:18.342Z,3708
2019-01-17T14:03:20.452Z,3984
2019-01-17T14:04:22.577Z,3636
2019-01-17T14:05:24.705Z,4248
2019-01-17T14:06:26.803Z,6052
2019-01-17T14:07:28.966Z,6536
2019-01-17T14:08:31.079Z,5992
2019-01-17T14:09:33.203Z,7720
2019-01-17T14:10:35.595Z,6460
2019-01-17T14:11:38.000Z,6832
2019-01-17T14:12:40.129Z,6300
2019-01-17T14:13:42.230Z,5112
2019-01-17T14:14:44.362Z,4088
2019-01-17T14:15:46.464Z,4236
2019-01-17T14:16:48.585Z,4336
2019-01-17T14:17:50.695Z,3696
2019-01-17T14:18:52.839Z,3812
2019-01-17T14:19:54.953Z,3432
2019-01-17T14:20:57.067Z,3372
2019-01-17T14:21:59.492Z,2892
2019-01-17T14:23:01.584Z,2992
2019-01-17T14:24:03.708Z,2592
2019-01-17T14:25:05.855Z,3040
2019-01-17T14:26:07.957Z,3240
2019-01-17T14:27:13.963Z,3396
2019-01-17T14:28:16.616Z,2856
2019-01-17T14:29:19.125Z,2260
2019-01-17T14:30:21.251Z,1972